sensor_id;sensor_type;location;lat;lon;timestamp;P1;durP1;ratioP1;P2;durP2;ratioP2
80567;SDS011;69922;45.656;25.586;2023-05-19T00:00:59;8.00;;;4.60;;
80567;SDS011;69922;45.656;25.586;2023-05-19T00:02:07;7.50;;;4.80;;
80567;SDS011;69922;45.656;25.586;2023-05-19T00:03:15;7.10;;;5.30;;
80567;SDS011;69922;45.656;25.586;2023-05-19T00:04:25;8.00;;;4.70;;
80567;SDS011;69922;45.656;25.586;2023-05-19T00:05:34;7.30;;;5.60;;
80567;SDS011;69922;45.656;25.586;2023-05-19T00:06:45;6.00;;;5.10;;
80567;SDS011;69922;45.656;25.586;2023-05-19T00:07:57;7.40;;;5.10;;
80567;SDS011;69922;45.656;25.586;2023-05-19T00:09:05;7.20;;;5.50;;
80567;SDS011;69922;45.656;25.586;2023-05-19T00:10:16;7.80;;;5.40;;
80567;SDS011;69922;45.656;25.586;2023-05-19T00:11:25;5.70;;;5.00;;
80567;SDS011;69922;45.656;25.586;2023-05-19T00:12:34;7.10;;;5.70;;
80567;SDS011;69922;45.656;25.586;2023-05-19T00:13:42;7.50;;;5.40;;
80567;SDS011;69922;45.656;25.586;2023-05-19T00:14:52;8.50;;;6.00;;
80567;SDS011;69922;45.656;25.586;2023-05-19T00:16:02;8.10;;;6.30;;
80567;SDS011;69922;45.656;25.586;2023-05-19T00:17:11;8.00;;;6.00;;
80567;SDS011;69922;45.656;25.586;2023-05-19T00:18:17;8.20;;;5.70;;
80567;SDS011;69922;45.656;25.586;2023-05-19T00:19:24;8.10;;;5.60;;
80567;SDS011;69922;45.656;25.586;2023-05-19T00:20:35;8.40;;;4.90;;
80567;SDS011;69922;45.656;25.586;2023-05-19T00:21:42;8.00;;;5.90;;
80567;SDS011;69922;45.656;25.586;2023-05-19T00:22:48;7.10;;;4.50;;
80567;SDS011;69922;45.656;25.586;2023-05-19T00:23:55;5.60;;;4.50;;
80567;SDS011;69922;45.656;25.586;2023-05-19T00:25:01;8.90;;;5.20;;
80567;SDS011;69922;45.656;25.586;2023-05-19T00:26:10;7.30;;;5.70;;
80567;SDS011;69922;45.656;25.586;2023-05-19T00:27:16;8.50;;;5.50;;
80567;SDS011;69922;45.656;25.586;2023-05-19T00:28:23;7.80;;;6.00;;
80567;SDS011;69922;45.656;25.586;2023-05-19T00:29:29;7.20;;;6.10;;
80567;SDS011;69922;45.656;25.586;2023-05-19T00:30:36;7.20;;;5.40;;
80567;SDS011;69922;45.656;25.586;2023-05-19T00:31:43;8.20;;;6.00;;
80567;SDS011;69922;45.656;25.586;2023-05-19T00:32:49;9.20;;;6.60;;
80567;SDS011;69922;45.656;25.586;2023-05-19T00:33:57;7.20;;;5.70;;
80567;SDS011;69922;45.656;25.586;2023-05-19T00:35:05;8.60;;;5.60;;
80567;SDS011;69922;45.656;25.586;2023-05-19T00:36:12;7.60;;;6.00;;
80567;SDS011;69922;45.656;25.586;2023-05-19T00:37:18;8.80;;;5.80;;
80567;SDS011;69922;45.656;25.586;2023-05-19T00:38:27;8.20;;;6.10;;
80567;SDS011;69922;45.656;25.586;2023-05-19T00:39:34;9.20;;;5.20;;
80567;SDS011;69922;45.656;25.586;2023-05-19T00:40:40;6.90;;;5.20;;
80567;SDS011;69922;45.656;25.586;2023-05-19T00:41:47;7.20;;;4.90;;
80567;SDS011;69922;45.656;25.586;2023-05-19T00:42:53;8.40;;;5.30;;
80567;SDS011;69922;45.656;25.586;2023-05-19T00:43:59;7.10;;;5.30;;
80567;SDS011;69922;45.656;25.586;2023-05-19T00:45:08;6.80;;;5.40;;
80567;SDS011;69922;45.656;25.586;2023-05-19T00:46:15;7.60;;;5.90;;
80567;SDS011;69922;45.656;25.586;2023-05-19T00:47:21;6.80;;;5.70;;
80567;SDS011;69922;45.656;25.586;2023-05-19T00:48:27;11.60;;;6.10;;
80567;SDS011;69922;45.656;25.586;2023-05-19T00:49:34;7.60;;;5.10;;
80567;SDS011;69922;45.656;25.586;2023-05-19T00:50:42;6.90;;;5.40;;
80567;SDS011;69922;45.656;25.586;2023-05-19T00:52:56;9.70;;;5.40;;
80567;SDS011;69922;45.656;25.586;2023-05-19T00:54:02;8.30;;;5.70;;
80567;SDS011;69922;45.656;25.586;2023-05-19T00:55:11;8.30;;;5.60;;
80567;SDS011;69922;45.656;25.586;2023-05-19T00:56:19;9.10;;;5.70;;
80567;SDS011;69922;45.656;25.586;2023-05-19T00:57:26;6.30;;;5.20;;
80567;SDS011;69922;45.656;25.586;2023-05-19T00:58:36;8.40;;;4.80;;
80567;SDS011;69922;45.656;25.586;2023-05-19T00:59:42;7.20;;;4.60;;
80567;SDS011;69922;45.656;25.586;2023-05-19T01:00:48;7.10;;;5.30;;
80567;SDS011;69922;45.656;25.586;2023-05-19T01:01:57;6.90;;;4.90;;
80567;SDS011;69922;45.656;25.586;2023-05-19T01:03:06;7.50;;;5.20;;
80567;SDS011;69922;45.656;25.586;2023-05-19T01:04:17;7.50;;;5.60;;
80567;SDS011;69922;45.656;25.586;2023-05-19T01:05:25;8.40;;;5.30;;
80567;SDS011;69922;45.656;25.586;2023-05-19T01:06:31;10.20;;;5.40;;
80567;SDS011;69922;45.656;25.586;2023-05-19T01:07:38;6.90;;;5.50;;
80567;SDS011;69922;45.656;25.586;2023-05-19T01:08:46;8.10;;;5.70;;
80567;SDS011;69922;45.656;25.586;2023-05-19T01:09:52;8.70;;;5.50;;
80567;SDS011;69922;45.656;25.586;2023-05-19T01:10:58;8.50;;;5.50;;
80567;SDS011;69922;45.656;25.586;2023-05-19T01:12:07;9.30;;;5.40;;
80567;SDS011;69922;45.656;25.586;2023-05-19T01:13:13;6.90;;;5.40;;
80567;SDS011;69922;45.656;25.586;2023-05-19T01:14:20;6.70;;;5.40;;
80567;SDS011;69922;45.656;25.586;2023-05-19T01:15:26;6.80;;;4.80;;
80567;SDS011;69922;45.656;25.586;2023-05-19T01:16:39;6.40;;;5.00;;
80567;SDS011;69922;45.656;25.586;2023-05-19T01:17:52;7.50;;;5.20;;
80567;SDS011;69922;45.656;25.586;2023-05-19T01:19:04;7.20;;;5.00;;
80567;SDS011;69922;45.656;25.586;2023-05-19T01:20:21;6.50;;;5.60;;
80567;SDS011;69922;45.656;25.586;2023-05-19T01:21:44;6.60;;;5.30;;
80567;SDS011;69922;45.656;25.586;2023-05-19T01:23:30;7.10;;;5.20;;
80567;SDS011;69922;45.656;25.586;2023-05-19T01:26:47;8.10;;;4.90;;
80567;SDS011;69922;45.656;25.586;2023-05-19T01:28:21;8.90;;;5.30;;
80567;SDS011;69922;45.656;25.586;2023-05-19T01:29:40;7.10;;;5.00;;
80567;SDS011;69922;45.656;25.586;2023-05-19T01:30:58;7.80;;;5.70;;
80567;SDS011;69922;45.656;25.586;2023-05-19T01:32:09;9.20;;;6.10;;
80567;SDS011;69922;45.656;25.586;2023-05-19T01:33:18;6.80;;;4.80;;
80567;SDS011;69922;45.656;25.586;2023-05-19T01:34:27;7.00;;;4.80;;
80567;SDS011;69922;45.656;25.586;2023-05-19T01:35:37;7.00;;;4.30;;
80567;SDS011;69922;45.656;25.586;2023-05-19T01:36:45;6.50;;;4.70;;
80567;SDS011;69922;45.656;25.586;2023-05-19T01:37:55;7.50;;;5.40;;
80567;SDS011;69922;45.656;25.586;2023-05-19T01:39:05;8.50;;;5.30;;
80567;SDS011;69922;45.656;25.586;2023-05-19T01:40:12;7.40;;;5.70;;
80567;SDS011;69922;45.656;25.586;2023-05-19T01:42:25;8.60;;;5.10;;
80567;SDS011;69922;45.656;25.586;2023-05-19T01:43:33;8.30;;;5.60;;
80567;SDS011;69922;45.656;25.586;2023-05-19T01:44:40;9.30;;;6.00;;
80567;SDS011;69922;45.656;25.586;2023-05-19T01:45:47;10.60;;;6.10;;
80567;SDS011;69922;45.656;25.586;2023-05-19T01:46:53;7.80;;;6.10;;
80567;SDS011;69922;45.656;25.586;2023-05-19T01:48:01;7.60;;;5.30;;
80567;SDS011;69922;45.656;25.586;2023-05-19T01:49:14;8.60;;;5.40;;
80567;SDS011;69922;45.656;25.586;2023-05-19T01:50:20;5.70;;;4.60;;
80567;SDS011;69922;45.656;25.586;2023-05-19T01:51:27;6.60;;;5.20;;
80567;SDS011;69922;45.656;25.586;2023-05-19T01:52:34;6.90;;;4.50;;
80567;SDS011;69922;45.656;25.586;2023-05-19T01:53:41;6.70;;;5.00;;
80567;SDS011;69922;45.656;25.586;2023-05-19T01:54:47;6.80;;;5.10;;
80567;SDS011;69922;45.656;25.586;2023-05-19T01:55:56;7.90;;;5.20;;
80567;SDS011;69922;45.656;25.586;2023-05-19T01:57:14;9.20;;;5.60;;
80567;SDS011;69922;45.656;25.586;2023-05-19T01:58:30;8.40;;;5.80;;
80567;SDS011;69922;45.656;25.586;2023-05-19T01:59:46;8.70;;;5.60;;
80567;SDS011;69922;45.656;25.586;2023-05-19T02:01:08;8.40;;;5.50;;
80567;SDS011;69922;45.656;25.586;2023-05-19T02:02:24;8.10;;;5.60;;
80567;SDS011;69922;45.656;25.586;2023-05-19T02:05:16;7.20;;;5.20;;
80567;SDS011;69922;45.656;25.586;2023-05-19T02:06:35;6.90;;;4.80;;
80567;SDS011;69922;45.656;25.586;2023-05-19T02:07:51;7.60;;;5.10;;
80567;SDS011;69922;45.656;25.586;2023-05-19T02:09:06;5.20;;;4.30;;
80567;SDS011;69922;45.656;25.586;2023-05-19T02:10:21;5.90;;;4.20;;
80567;SDS011;69922;45.656;25.586;2023-05-19T02:11:36;9.10;;;5.30;;
80567;SDS011;69922;45.656;25.586;2023-05-19T02:12:45;9.00;;;5.30;;
80567;SDS011;69922;45.656;25.586;2023-05-19T02:13:56;7.60;;;5.70;;
80567;SDS011;69922;45.656;25.586;2023-05-19T02:15:08;7.90;;;5.10;;
80567;SDS011;69922;45.656;25.586;2023-05-19T02:16:18;10.40;;;5.80;;
80567;SDS011;69922;45.656;25.586;2023-05-19T02:17:28;6.40;;;5.40;;
80567;SDS011;69922;45.656;25.586;2023-05-19T02:18:39;8.90;;;6.00;;
80567;SDS011;69922;45.656;25.586;2023-05-19T02:19:49;8.90;;;5.70;;
80567;SDS011;69922;45.656;25.586;2023-05-19T02:20:56;8.00;;;5.60;;
80567;SDS011;69922;45.656;25.586;2023-05-19T02:22:02;8.80;;;5.20;;
80567;SDS011;69922;45.656;25.586;2023-05-19T02:23:10;8.40;;;5.20;;
80567;SDS011;69922;45.656;25.586;2023-05-19T02:24:17;9.10;;;4.40;;
80567;SDS011;69922;45.656;25.586;2023-05-19T02:25:26;6.60;;;4.80;;
80567;SDS011;69922;45.656;25.586;2023-05-19T02:26:32;5.90;;;4.60;;
80567;SDS011;69922;45.656;25.586;2023-05-19T02:27:40;7.70;;;5.20;;
80567;SDS011;69922;45.656;25.586;2023-05-19T02:28:46;8.40;;;5.80;;
80567;SDS011;69922;45.656;25.586;2023-05-19T02:29:53;8.20;;;5.90;;
80567;SDS011;69922;45.656;25.586;2023-05-19T02:30:59;7.80;;;5.60;;
80567;SDS011;69922;45.656;25.586;2023-05-19T02:32:13;6.50;;;5.70;;
80567;SDS011;69922;45.656;25.586;2023-05-19T02:33:22;7.30;;;5.30;;
80567;SDS011;69922;45.656;25.586;2023-05-19T02:34:29;7.10;;;5.00;;
80567;SDS011;69922;45.656;25.586;2023-05-19T02:35:36;8.50;;;6.40;;
80567;SDS011;69922;45.656;25.586;2023-05-19T02:36:42;8.10;;;5.50;;
80567;SDS011;69922;45.656;25.586;2023-05-19T02:37:48;8.40;;;6.10;;
80567;SDS011;69922;45.656;25.586;2023-05-19T02:38:54;5.80;;;4.70;;
80567;SDS011;69922;45.656;25.586;2023-05-19T02:40:00;6.60;;;5.10;;
80567;SDS011;69922;45.656;25.586;2023-05-19T02:41:07;5.80;;;4.50;;
80567;SDS011;69922;45.656;25.586;2023-05-19T02:42:14;7.20;;;4.80;;
80567;SDS011;69922;45.656;25.586;2023-05-19T02:43:23;7.90;;;4.70;;
80567;SDS011;69922;45.656;25.586;2023-05-19T02:44:29;7.30;;;5.40;;
80567;SDS011;69922;45.656;25.586;2023-05-19T02:45:35;6.90;;;4.70;;
80567;SDS011;69922;45.656;25.586;2023-05-19T02:46:41;9.00;;;5.70;;
80567;SDS011;69922;45.656;25.586;2023-05-19T02:47:49;9.60;;;5.60;;
80567;SDS011;69922;45.656;25.586;2023-05-19T02:48:56;9.10;;;5.30;;
80567;SDS011;69922;45.656;25.586;2023-05-19T02:50:03;12.40;;;5.50;;
80567;SDS011;69922;45.656;25.586;2023-05-19T02:51:11;8.10;;;5.90;;
80567;SDS011;69922;45.656;25.586;2023-05-19T02:52:17;7.10;;;5.10;;
80567;SDS011;69922;45.656;25.586;2023-05-19T02:53:24;8.60;;;5.60;;
80567;SDS011;69922;45.656;25.586;2023-05-19T02:54:30;9.50;;;5.00;;
80567;SDS011;69922;45.656;25.586;2023-05-19T02:55:36;9.60;;;5.70;;
80567;SDS011;69922;45.656;25.586;2023-05-19T02:56:43;8.20;;;4.80;;
80567;SDS011;69922;45.656;25.586;2023-05-19T02:57:50;7.60;;;4.80;;
80567;SDS011;69922;45.656;25.586;2023-05-19T02:58:56;10.80;;;5.40;;
80567;SDS011;69922;45.656;25.586;2023-05-19T03:00:03;8.70;;;5.30;;
80567;SDS011;69922;45.656;25.586;2023-05-19T03:01:12;10.60;;;5.30;;
80567;SDS011;69922;45.656;25.586;2023-05-19T03:02:19;8.80;;;4.90;;
80567;SDS011;69922;45.656;25.586;2023-05-19T03:03:25;9.60;;;5.30;;
80567;SDS011;69922;45.656;25.586;2023-05-19T03:04:31;10.10;;;5.80;;
80567;SDS011;69922;45.656;25.586;2023-05-19T03:05:45;11.60;;;6.60;;
80567;SDS011;69922;45.656;25.586;2023-05-19T03:06:51;11.00;;;6.40;;
80567;SDS011;69922;45.656;25.586;2023-05-19T03:07:57;11.40;;;6.30;;
80567;SDS011;69922;45.656;25.586;2023-05-19T03:09:03;11.10;;;6.30;;
80567;SDS011;69922;45.656;25.586;2023-05-19T03:10:10;11.50;;;6.30;;
80567;SDS011;69922;45.656;25.586;2023-05-19T03:11:17;16.70;;;6.90;;
80567;SDS011;69922;45.656;25.586;2023-05-19T03:12:23;13.40;;;6.10;;
80567;SDS011;69922;45.656;25.586;2023-05-19T03:13:29;10.50;;;5.40;;
80567;SDS011;69922;45.656;25.586;2023-05-19T03:14:36;7.70;;;5.30;;
80567;SDS011;69922;45.656;25.586;2023-05-19T03:15:42;11.00;;;5.30;;
80567;SDS011;69922;45.656;25.586;2023-05-19T03:16:48;9.30;;;6.50;;
80567;SDS011;69922;45.656;25.586;2023-05-19T03:17:55;16.30;;;6.80;;
80567;SDS011;69922;45.656;25.586;2023-05-19T03:19:01;12.60;;;6.00;;
80567;SDS011;69922;45.656;25.586;2023-05-19T03:20:09;11.10;;;6.20;;
80567;SDS011;69922;45.656;25.586;2023-05-19T03:21:19;11.70;;;6.70;;
80567;SDS011;69922;45.656;25.586;2023-05-19T03:22:25;13.60;;;7.40;;
80567;SDS011;69922;45.656;25.586;2023-05-19T03:23:32;12.20;;;6.40;;
80567;SDS011;69922;45.656;25.586;2023-05-19T03:24:38;8.50;;;6.40;;
80567;SDS011;69922;45.656;25.586;2023-05-19T03:25:44;8.40;;;6.10;;
80567;SDS011;69922;45.656;25.586;2023-05-19T03:26:52;10.20;;;6.20;;
80567;SDS011;69922;45.656;25.586;2023-05-19T03:27:58;10.20;;;5.50;;
80567;SDS011;69922;45.656;25.586;2023-05-19T03:29:04;13.20;;;5.90;;
80567;SDS011;69922;45.656;25.586;2023-05-19T03:30:12;10.50;;;5.40;;
80567;SDS011;69922;45.656;25.586;2023-05-19T03:31:18;12.10;;;5.90;;
80567;SDS011;69922;45.656;25.586;2023-05-19T03:32:25;8.50;;;6.10;;
80567;SDS011;69922;45.656;25.586;2023-05-19T03:33:32;8.30;;;6.40;;
80567;SDS011;69922;45.656;25.586;2023-05-19T03:34:38;10.10;;;5.80;;
80567;SDS011;69922;45.656;25.586;2023-05-19T03:35:44;8.30;;;6.00;;
80567;SDS011;69922;45.656;25.586;2023-05-19T03:36:50;14.00;;;6.70;;
80567;SDS011;69922;45.656;25.586;2023-05-19T03:37:56;9.50;;;6.30;;
80567;SDS011;69922;45.656;25.586;2023-05-19T03:39:02;14.40;;;6.50;;
80567;SDS011;69922;45.656;25.586;2023-05-19T03:40:11;9.90;;;6.00;;
80567;SDS011;69922;45.656;25.586;2023-05-19T03:41:18;14.70;;;7.00;;
80567;SDS011;69922;45.656;25.586;2023-05-19T03:42:27;10.90;;;6.30;;
80567;SDS011;69922;45.656;25.586;2023-05-19T03:43:33;14.10;;;6.50;;
80567;SDS011;69922;45.656;25.586;2023-05-19T03:44:40;10.40;;;6.50;;
80567;SDS011;69922;45.656;25.586;2023-05-19T03:45:47;10.30;;;5.80;;
80567;SDS011;69922;45.656;25.586;2023-05-19T03:46:58;8.40;;;5.90;;
80567;SDS011;69922;45.656;25.586;2023-05-19T03:48:05;12.30;;;6.20;;
80567;SDS011;69922;45.656;25.586;2023-05-19T03:49:12;10.70;;;6.90;;
80567;SDS011;69922;45.656;25.586;2023-05-19T03:50:18;10.00;;;6.70;;
80567;SDS011;69922;45.656;25.586;2023-05-19T03:52:35;11.50;;;6.80;;
80567;SDS011;69922;45.656;25.586;2023-05-19T03:53:44;13.40;;;7.30;;
80567;SDS011;69922;45.656;25.586;2023-05-19T03:54:53;16.40;;;6.10;;
80567;SDS011;69922;45.656;25.586;2023-05-19T03:56:01;13.90;;;7.10;;
80567;SDS011;69922;45.656;25.586;2023-05-19T03:57:10;8.90;;;6.50;;
80567;SDS011;69922;45.656;25.586;2023-05-19T03:58:16;12.00;;;6.70;;
80567;SDS011;69922;45.656;25.586;2023-05-19T03:59:23;12.00;;;6.90;;
80567;SDS011;69922;45.656;25.586;2023-05-19T04:00:30;11.80;;;7.70;;
80567;SDS011;69922;45.656;25.586;2023-05-19T04:01:37;14.60;;;7.30;;
80567;SDS011;69922;45.656;25.586;2023-05-19T04:02:44;14.20;;;7.30;;
80567;SDS011;69922;45.656;25.586;2023-05-19T04:03:50;11.60;;;6.50;;
80567;SDS011;69922;45.656;25.586;2023-05-19T04:04:57;11.00;;;7.50;;
80567;SDS011;69922;45.656;25.586;2023-05-19T04:06:05;12.00;;;6.70;;
80567;SDS011;69922;45.656;25.586;2023-05-19T04:07:11;10.70;;;6.40;;
80567;SDS011;69922;45.656;25.586;2023-05-19T04:08:17;13.10;;;7.10;;
80567;SDS011;69922;45.656;25.586;2023-05-19T04:09:24;12.30;;;7.10;;
80567;SDS011;69922;45.656;25.586;2023-05-19T04:10:32;17.80;;;7.30;;
80567;SDS011;69922;45.656;25.586;2023-05-19T04:11:38;14.00;;;7.20;;
80567;SDS011;69922;45.656;25.586;2023-05-19T04:12:44;16.20;;;7.10;;
80567;SDS011;69922;45.656;25.586;2023-05-19T04:13:50;16.40;;;7.90;;
80567;SDS011;69922;45.656;25.586;2023-05-19T04:14:57;14.20;;;7.10;;
80567;SDS011;69922;45.656;25.586;2023-05-19T04:16:05;12.20;;;7.30;;
80567;SDS011;69922;45.656;25.586;2023-05-19T04:17:13;10.00;;;7.30;;
80567;SDS011;69922;45.656;25.586;2023-05-19T04:18:19;11.10;;;6.80;;
80567;SDS011;69922;45.656;25.586;2023-05-19T04:19:25;14.30;;;7.20;;
80567;SDS011;69922;45.656;25.586;2023-05-19T04:20:33;12.70;;;7.20;;
80567;SDS011;69922;45.656;25.586;2023-05-19T04:21:40;10.30;;;6.60;;
80567;SDS011;69922;45.656;25.586;2023-05-19T04:22:47;12.30;;;7.60;;
80567;SDS011;69922;45.656;25.586;2023-05-19T04:23:53;12.30;;;8.20;;
80567;SDS011;69922;45.656;25.586;2023-05-19T04:25:02;11.60;;;6.80;;
80567;SDS011;69922;45.656;25.586;2023-05-19T04:26:09;12.50;;;7.20;;
80567;SDS011;69922;45.656;25.586;2023-05-19T04:27:18;12.70;;;7.10;;
80567;SDS011;69922;45.656;25.586;2023-05-19T04:28:25;12.60;;;7.20;;
80567;SDS011;69922;45.656;25.586;2023-05-19T04:29:32;10.80;;;7.10;;
80567;SDS011;69922;45.656;25.586;2023-05-19T04:30:38;11.20;;;7.10;;
80567;SDS011;69922;45.656;25.586;2023-05-19T04:31:45;11.90;;;7.50;;
80567;SDS011;69922;45.656;25.586;2023-05-19T04:32:52;15.00;;;7.40;;
80567;SDS011;69922;45.656;25.586;2023-05-19T04:34:02;14.30;;;7.70;;
80567;SDS011;69922;45.656;25.586;2023-05-19T04:35:08;13.00;;;7.60;;
80567;SDS011;69922;45.656;25.586;2023-05-19T04:36:16;12.80;;;6.80;;
80567;SDS011;69922;45.656;25.586;2023-05-19T04:37:25;13.10;;;7.20;;
80567;SDS011;69922;45.656;25.586;2023-05-19T04:38:35;11.40;;;6.30;;
80567;SDS011;69922;45.656;25.586;2023-05-19T04:39:45;10.30;;;6.70;;
80567;SDS011;69922;45.656;25.586;2023-05-19T04:40:51;10.40;;;6.20;;
80567;SDS011;69922;45.656;25.586;2023-05-19T04:41:59;10.80;;;6.80;;
80567;SDS011;69922;45.656;25.586;2023-05-19T04:43:06;11.70;;;7.20;;
80567;SDS011;69922;45.656;25.586;2023-05-19T04:44:14;11.50;;;6.20;;
80567;SDS011;69922;45.656;25.586;2023-05-19T04:45:21;9.90;;;6.80;;
80567;SDS011;69922;45.656;25.586;2023-05-19T04:46:30;11.70;;;7.80;;
80567;SDS011;69922;45.656;25.586;2023-05-19T04:47:38;12.40;;;7.10;;
80567;SDS011;69922;45.656;25.586;2023-05-19T04:48:45;12.70;;;7.40;;
80567;SDS011;69922;45.656;25.586;2023-05-19T04:49:54;12.10;;;7.10;;
80567;SDS011;69922;45.656;25.586;2023-05-19T04:51:00;12.70;;;7.20;;
80567;SDS011;69922;45.656;25.586;2023-05-19T04:52:07;10.20;;;6.60;;
80567;SDS011;69922;45.656;25.586;2023-05-19T04:53:14;11.10;;;7.10;;
80567;SDS011;69922;45.656;25.586;2023-05-19T04:54:20;11.30;;;7.40;;
80567;SDS011;69922;45.656;25.586;2023-05-19T04:55:27;13.20;;;6.90;;
80567;SDS011;69922;45.656;25.586;2023-05-19T04:56:33;14.00;;;7.40;;
80567;SDS011;69922;45.656;25.586;2023-05-19T04:57:40;13.40;;;7.60;;
80567;SDS011;69922;45.656;25.586;2023-05-19T04:58:46;12.60;;;7.90;;
80567;SDS011;69922;45.656;25.586;2023-05-19T04:59:55;14.50;;;8.60;;
80567;SDS011;69922;45.656;25.586;2023-05-19T05:01:03;16.70;;;8.70;;
80567;SDS011;69922;45.656;25.586;2023-05-19T05:02:09;10.50;;;8.30;;
80567;SDS011;69922;45.656;25.586;2023-05-19T05:03:19;14.40;;;8.10;;
80567;SDS011;69922;45.656;25.586;2023-05-19T05:04:30;11.70;;;7.70;;
80567;SDS011;69922;45.656;25.586;2023-05-19T05:05:36;13.00;;;7.90;;
80567;SDS011;69922;45.656;25.586;2023-05-19T05:06:42;13.60;;;8.30;;
80567;SDS011;69922;45.656;25.586;2023-05-19T05:07:51;15.80;;;8.40;;
80567;SDS011;69922;45.656;25.586;2023-05-19T05:08:58;14.90;;;8.60;;
80567;SDS011;69922;45.656;25.586;2023-05-19T05:10:10;13.20;;;7.60;;
80567;SDS011;69922;45.656;25.586;2023-05-19T05:11:16;14.20;;;7.50;;
80567;SDS011;69922;45.656;25.586;2023-05-19T05:12:26;16.10;;;8.50;;
80567;SDS011;69922;45.656;25.586;2023-05-19T05:13:34;13.90;;;8.30;;
80567;SDS011;69922;45.656;25.586;2023-05-19T05:14:42;13.00;;;8.00;;
80567;SDS011;69922;45.656;25.586;2023-05-19T05:15:49;13.00;;;8.20;;
80567;SDS011;69922;45.656;25.586;2023-05-19T05:16:59;14.30;;;8.70;;
80567;SDS011;69922;45.656;25.586;2023-05-19T05:18:08;17.30;;;9.30;;
80567;SDS011;69922;45.656;25.586;2023-05-19T05:19:16;16.00;;;8.80;;
80567;SDS011;69922;45.656;25.586;2023-05-19T05:20:27;11.60;;;8.50;;
80567;SDS011;69922;45.656;25.586;2023-05-19T05:21:43;16.90;;;8.10;;
80567;SDS011;69922;45.656;25.586;2023-05-19T05:22:51;11.40;;;8.20;;
80567;SDS011;69922;45.656;25.586;2023-05-19T05:23:59;15.70;;;8.60;;
80567;SDS011;69922;45.656;25.586;2023-05-19T05:25:07;13.40;;;8.60;;
80567;SDS011;69922;45.656;25.586;2023-05-19T05:27:23;15.70;;;8.20;;
80567;SDS011;69922;45.656;25.586;2023-05-19T05:28:30;17.70;;;8.60;;
80567;SDS011;69922;45.656;25.586;2023-05-19T05:29:36;12.50;;;8.30;;
80567;SDS011;69922;45.656;25.586;2023-05-19T05:30:42;15.80;;;8.90;;
80567;SDS011;69922;45.656;25.586;2023-05-19T05:31:50;14.60;;;8.10;;
80567;SDS011;69922;45.656;25.586;2023-05-19T05:32:56;13.10;;;8.10;;
80567;SDS011;69922;45.656;25.586;2023-05-19T05:34:03;13.70;;;8.40;;
80567;SDS011;69922;45.656;25.586;2023-05-19T05:35:12;12.90;;;8.70;;
80567;SDS011;69922;45.656;25.586;2023-05-19T05:36:19;12.70;;;8.70;;
80567;SDS011;69922;45.656;25.586;2023-05-19T05:37:25;13.30;;;8.00;;
80567;SDS011;69922;45.656;25.586;2023-05-19T05:38:34;13.30;;;8.90;;
80567;SDS011;69922;45.656;25.586;2023-05-19T05:39:40;12.70;;;8.30;;
80567;SDS011;69922;45.656;25.586;2023-05-19T05:40:46;10.90;;;7.60;;
80567;SDS011;69922;45.656;25.586;2023-05-19T05:41:53;16.20;;;9.30;;
80567;SDS011;69922;45.656;25.586;2023-05-19T05:42:59;15.30;;;9.10;;
80567;SDS011;69922;45.656;25.586;2023-05-19T05:44:05;13.10;;;8.80;;
80567;SDS011;69922;45.656;25.586;2023-05-19T05:45:11;11.60;;;8.60;;
80567;SDS011;69922;45.656;25.586;2023-05-19T05:46:18;15.30;;;9.80;;
80567;SDS011;69922;45.656;25.586;2023-05-19T05:47:25;12.40;;;8.80;;
80567;SDS011;69922;45.656;25.586;2023-05-19T05:48:34;12.60;;;9.10;;
80567;SDS011;69922;45.656;25.586;2023-05-19T05:49:42;19.60;;;9.70;;
80567;SDS011;69922;45.656;25.586;2023-05-19T05:50:55;14.00;;;8.60;;
80567;SDS011;69922;45.656;25.586;2023-05-19T05:53:10;13.60;;;9.20;;
80567;SDS011;69922;45.656;25.586;2023-05-19T05:54:24;16.50;;;9.10;;
80567;SDS011;69922;45.656;25.586;2023-05-19T05:55:32;11.60;;;8.20;;
80567;SDS011;69922;45.656;25.586;2023-05-19T05:56:40;13.80;;;8.70;;
80567;SDS011;69922;45.656;25.586;2023-05-19T05:57:48;15.10;;;8.30;;
80567;SDS011;69922;45.656;25.586;2023-05-19T05:58:55;10.40;;;8.80;;
80567;SDS011;69922;45.656;25.586;2023-05-19T06:00:02;13.10;;;8.90;;
80567;SDS011;69922;45.656;25.586;2023-05-19T06:01:31;11.90;;;9.00;;
80567;SDS011;69922;45.656;25.586;2023-05-19T06:02:40;12.90;;;8.50;;
80567;SDS011;69922;45.656;25.586;2023-05-19T06:03:49;11.50;;;7.90;;
80567;SDS011;69922;45.656;25.586;2023-05-19T06:04:55;15.80;;;8.30;;
80567;SDS011;69922;45.656;25.586;2023-05-19T06:06:04;11.60;;;8.30;;
80567;SDS011;69922;45.656;25.586;2023-05-19T06:07:10;12.60;;;8.70;;
80567;SDS011;69922;45.656;25.586;2023-05-19T06:08:16;12.90;;;8.70;;
80567;SDS011;69922;45.656;25.586;2023-05-19T06:09:23;14.50;;;9.30;;
80567;SDS011;69922;45.656;25.586;2023-05-19T06:10:31;14.50;;;9.00;;
80567;SDS011;69922;45.656;25.586;2023-05-19T06:11:39;14.60;;;8.80;;
80567;SDS011;69922;45.656;25.586;2023-05-19T06:12:45;14.70;;;10.00;;
80567;SDS011;69922;45.656;25.586;2023-05-19T06:13:51;14.00;;;9.60;;
80567;SDS011;69922;45.656;25.586;2023-05-19T06:14:57;13.00;;;9.30;;
80567;SDS011;69922;45.656;25.586;2023-05-19T06:16:04;13.80;;;9.10;;
80567;SDS011;69922;45.656;25.586;2023-05-19T06:17:11;12.70;;;8.90;;
80567;SDS011;69922;45.656;25.586;2023-05-19T06:18:17;14.60;;;8.70;;
80567;SDS011;69922;45.656;25.586;2023-05-19T06:19:24;14.20;;;9.60;;
80567;SDS011;69922;45.656;25.586;2023-05-19T06:20:31;16.50;;;9.90;;
80567;SDS011;69922;45.656;25.586;2023-05-19T06:22:46;12.60;;;8.70;;
80567;SDS011;69922;45.656;25.586;2023-05-19T06:23:52;13.70;;;9.10;;
80567;SDS011;69922;45.656;25.586;2023-05-19T06:24:59;12.10;;;8.70;;
80567;SDS011;69922;45.656;25.586;2023-05-19T06:26:06;13.60;;;8.50;;
80567;SDS011;69922;45.656;25.586;2023-05-19T06:27:12;14.20;;;9.70;;
80567;SDS011;69922;45.656;25.586;2023-05-19T06:28:19;11.00;;;8.50;;
80567;SDS011;69922;45.656;25.586;2023-05-19T06:29:25;11.80;;;8.50;;
80567;SDS011;69922;45.656;25.586;2023-05-19T06:30:32;12.50;;;9.00;;
80567;SDS011;69922;45.656;25.586;2023-05-19T06:31:41;13.50;;;8.80;;
80567;SDS011;69922;45.656;25.586;2023-05-19T06:32:47;10.50;;;8.30;;
80567;SDS011;69922;45.656;25.586;2023-05-19T06:33:53;13.00;;;9.60;;
80567;SDS011;69922;45.656;25.586;2023-05-19T06:35:00;13.80;;;8.80;;
80567;SDS011;69922;45.656;25.586;2023-05-19T06:36:09;14.20;;;8.80;;
80567;SDS011;69922;45.656;25.586;2023-05-19T06:37:15;14.20;;;8.80;;
80567;SDS011;69922;45.656;25.586;2023-05-19T06:38:24;13.80;;;9.30;;
80567;SDS011;69922;45.656;25.586;2023-05-19T06:39:30;11.20;;;8.60;;
80567;SDS011;69922;45.656;25.586;2023-05-19T06:40:36;12.50;;;8.60;;
80567;SDS011;69922;45.656;25.586;2023-05-19T06:41:43;13.30;;;9.50;;
80567;SDS011;69922;45.656;25.586;2023-05-19T06:42:50;11.10;;;8.20;;
80567;SDS011;69922;45.656;25.586;2023-05-19T06:43:56;11.30;;;8.80;;
80567;SDS011;69922;45.656;25.586;2023-05-19T06:45:03;13.70;;;8.30;;
80567;SDS011;69922;45.656;25.586;2023-05-19T06:46:12;12.90;;;8.80;;
80567;SDS011;69922;45.656;25.586;2023-05-19T06:47:21;13.30;;;9.30;;
80567;SDS011;69922;45.656;25.586;2023-05-19T06:48:27;11.20;;;8.60;;
80567;SDS011;69922;45.656;25.586;2023-05-19T06:49:33;11.30;;;7.10;;
80567;SDS011;69922;45.656;25.586;2023-05-19T06:50:39;12.50;;;8.60;;
80567;SDS011;69922;45.656;25.586;2023-05-19T06:51:47;10.90;;;7.30;;
80567;SDS011;69922;45.656;25.586;2023-05-19T06:52:54;10.20;;;8.10;;